createdAt,value
2023-03-27T00:01:22.959Z,20.55
2023-03-27T00:03:53.637Z,16.98
2023-03-27T00:06:22.125Z,15.57
2023-03-27T00:08:52.205Z,18.88
2023-03-27T00:11:22.218Z,20.30
2023-03-27T00:13:54.650Z,22.40
2023-03-27T00:16:25.581Z,18.05
2023-03-27T00:18:53.527Z,18.92
2023-03-27T00:21:22.623Z,20.63
2023-03-27T00:23:49.879Z,22.17
2023-03-27T00:26:18.429Z,14.18
2023-03-27T00:28:47.621Z,18.40
2023-03-27T00:31:16.416Z,20.27
2023-03-27T00:33:43.659Z,16.05
2023-03-27T00:36:11.636Z,20.00
2023-03-27T00:38:43.857Z,21.00
2023-03-27T00:41:12.860Z,26.42
2023-03-27T00:43:45.567Z,16.35
2023-03-27T00:46:25.786Z,19.50
2023-03-27T00:48:55.009Z,22.15
2023-03-27T00:51:26.758Z,22.08
2023-03-27T00:53:55.999Z,23.02
2023-03-27T00:56:24.797Z,25.17
2023-03-27T00:59:02.056Z,22.15
2023-03-27T01:01:31.499Z,23.27
2023-03-27T01:04:04.732Z,20.10
2023-03-27T01:06:32.736Z,26.73
2023-03-27T01:08:59.866Z,18.00
2023-03-27T01:11:42.186Z,16.95
2023-03-27T01:14:46.095Z,21.27
2023-03-27T01:17:42.644Z,13.60
2023-03-27T01:20:30.411Z,16.90
2023-03-27T01:23:36.047Z,16.85
2023-03-27T01:26:37.266Z,19.23
2023-03-27T01:29:48.734Z,21.85
2023-03-27T01:32:32.748Z,24.58
2023-03-27T01:35:13.277Z,19.35
2023-03-27T01:38:14.354Z,20.05
2023-03-27T01:40:55.572Z,25.33
2023-03-27T01:43:50.918Z,18.08
2023-03-27T01:46:21.655Z,19.58
2023-03-27T01:48:52.281Z,18.70
2023-03-27T01:51:29.272Z,19.58
2023-03-27T01:56:39.626Z,22.02
2023-03-27T01:59:13.185Z,18.02
2023-03-27T02:01:46.789Z,21.08
2023-03-27T02:04:18.978Z,20.38
2023-03-27T02:06:55.590Z,21.27
2023-03-27T02:09:29.929Z,16.92
2023-03-27T02:14:39.841Z,16.80
2023-03-27T02:17:15.997Z,17.52
2023-03-27T02:20:01.051Z,23.52
2023-03-27T02:22:38.035Z,19.42
2023-03-27T02:25:32.728Z,20.58
2023-03-27T02:28:23.434Z,25.23
2023-03-27T02:31:33.251Z,19.42
2023-03-27T02:33:55.768Z,20.60
2023-03-27T02:36:23.557Z,22.35
2023-03-27T02:38:59.088Z,16.35
2023-03-27T02:41:36.617Z,17.52
2023-03-27T02:44:22.056Z,22.52
2023-03-27T02:47:11.883Z,23.13
2023-03-27T02:49:47.111Z,99.13
2023-03-27T02:52:29.347Z,124.60
2023-03-27T02:55:07.058Z,104.63
2023-03-27T02:57:51.807Z,39.30
2023-03-27T03:00:41.544Z,33.08
2023-03-27T03:03:33.958Z,27.67
2023-03-27T03:06:11.451Z,34.90
2023-03-27T03:08:39.467Z,27.42
2023-03-27T03:11:12.796Z,25.85
2023-03-27T03:13:43.734Z,25.08
2023-03-27T03:16:11.538Z,17.42
2023-03-27T03:18:40.362Z,21.05
2023-03-27T03:21:08.757Z,21.42
2023-03-27T03:23:36.323Z,19.85
2023-03-27T03:26:04.121Z,23.08
2023-03-27T03:28:59.763Z,28.27
2023-03-27T03:31:44.716Z,28.45
2023-03-27T03:34:18.705Z,24.80
2023-03-27T03:36:50.253Z,20.92
2023-03-27T03:39:23.209Z,29.90
2023-03-27T03:41:51.299Z,33.50
2023-03-27T03:44:18.714Z,60.75
2023-03-27T03:46:46.289Z,240.80
2023-03-27T03:49:17.412Z,69.72
2023-03-27T03:51:45.190Z,47.95
2023-03-27T03:54:12.491Z,33.03
2023-03-27T03:56:43.923Z,37.83
2023-03-27T03:59:14.507Z,37.92
2023-03-27T04:02:03.345Z,27.17
2023-03-27T04:04:32.266Z,27.48
2023-03-27T04:07:07.691Z,27.10
2023-03-27T04:09:38.854Z,21.95
2023-03-27T04:12:18.644Z,24.08
2023-03-27T04:14:58.994Z,41.63
2023-03-27T04:17:45.463Z,30.17
2023-03-27T04:20:13.346Z,33.70
2023-03-27T04:22:51.996Z,31.00
2023-03-27T04:25:24.011Z,31.42
2023-03-27T04:27:52.255Z,44.58
2023-03-27T04:30:27.871Z,42.33
2023-03-27T04:33:23.257Z,44.70
2023-03-27T04:36:21.038Z,57.28
2023-03-27T04:38:56.623Z,61.30
2023-03-27T04:41:23.924Z,62.22
2023-03-27T04:43:51.477Z,45.70
2023-03-27T04:46:18.763Z,53.00
2023-03-27T04:48:52.020Z,42.05
2023-03-27T04:51:32.574Z,42.38
2023-03-27T04:54:04.900Z,64.32
2023-03-27T04:56:34.008Z,70.97
2023-03-27T04:59:03.657Z,51.85
2023-03-27T05:01:31.097Z,51.83
2023-03-27T05:04:17.200Z,50.20
2023-03-27T05:07:05.024Z,53.80
2023-03-27T05:09:32.752Z,94.35
2023-03-27T05:11:59.984Z,122.53
2023-03-27T05:14:27.634Z,87.75
2023-03-27T05:16:58.062Z,72.15
2023-03-27T05:19:26.853Z,54.03
2023-03-27T05:21:59.410Z,45.15
2023-03-27T05:24:27.789Z,38.67
2023-03-27T05:26:55.052Z,29.73
2023-03-27T05:29:22.774Z,32.65
2023-03-27T05:32:00.136Z,28.88
2023-03-27T05:34:54.805Z,30.00
2023-03-27T05:37:25.900Z,25.23
2023-03-27T05:40:25.920Z,32.97
2023-03-27T05:42:54.955Z,28.10
2023-03-27T05:45:26.843Z,27.48
2023-03-27T05:47:56.844Z,22.55
2023-03-27T05:50:28.695Z,30.63
2023-03-27T05:53:00.961Z,35.47
2023-03-27T05:55:35.071Z,38.08
2023-03-27T05:58:02.676Z,49.08
2023-03-27T06:00:34.312Z,40.00
2023-03-27T06:03:03.547Z,37.13
2023-03-27T06:05:52.850Z,43.03
2023-03-27T06:08:20.949Z,40.45
2023-03-27T06:10:48.913Z,33.97
2023-03-27T06:13:25.833Z,43.65
2023-03-27T06:16:00.586Z,38.35
2023-03-27T06:18:43.067Z,41.50
2023-03-27T06:21:13.040Z,46.25
2023-03-27T06:23:40.609Z,41.78
2023-03-27T06:26:13.979Z,34.53
2023-03-27T06:28:41.395Z,36.45
2023-03-27T06:31:09.573Z,46.20
2023-03-27T06:33:40.644Z,41.95
2023-03-27T06:36:18.292Z,45.38
2023-03-27T06:38:48.022Z,32.70
2023-03-27T06:41:15.789Z,38.83
2023-03-27T06:43:57.508Z,36.33
2023-03-27T06:46:47.169Z,41.08
2023-03-27T06:49:18.540Z,42.15
2023-03-27T06:51:46.191Z,28.48
2023-03-27T06:54:14.769Z,27.48
2023-03-27T06:56:47.583Z,23.17
2023-03-27T06:59:16.996Z,25.08
2023-03-27T07:01:47.431Z,14.00
2023-03-27T07:04:27.706Z,14.20
2023-03-27T07:07:13.892Z,10.98
2023-03-27T07:09:43.279Z,19.15
2023-03-27T07:12:13.190Z,14.20
2023-03-27T07:14:42.719Z,9.73
2023-03-27T07:17:10.844Z,11.35
2023-03-27T07:19:49.492Z,12.88
2023-03-27T07:22:19.477Z,9.82
2023-03-27T07:24:46.791Z,7.57
2023-03-27T07:27:18.634Z,13.95
2023-03-27T07:29:46.577Z,10.73
2023-03-27T07:32:34.055Z,14.63
2023-03-27T07:35:08.821Z,18.92
2023-03-27T07:37:38.230Z,14.30
2023-03-27T07:40:43.746Z,8.18
2023-03-27T07:43:29.605Z,12.65
2023-03-27T07:45:58.267Z,12.20
2023-03-27T07:48:28.098Z,9.35
2023-03-27T07:51:10.811Z,10.80
2023-03-27T07:53:41.768Z,11.48
2023-03-27T07:56:25.181Z,13.27
2023-03-27T07:59:12.079Z,11.05
2023-03-27T08:01:41.713Z,11.77
2023-03-27T08:04:09.800Z,11.15
2023-03-27T08:06:39.846Z,14.20
2023-03-27T08:09:13.418Z,12.27
2023-03-27T08:11:41.720Z,14.43
2023-03-27T08:14:11.517Z,16.25
2023-03-27T08:16:39.587Z,11.13
2023-03-27T08:19:09.863Z,11.90
2023-03-27T08:21:40.955Z,18.05
2023-03-27T08:24:09.241Z,10.43
2023-03-27T08:27:03.750Z,14.85
2023-03-27T08:29:32.173Z,7.05
2023-03-27T08:31:59.460Z,8.93
2023-03-27T08:34:28.328Z,5.25
2023-03-27T08:36:56.710Z,3.33
2023-03-27T08:39:33.673Z,3.58
2023-03-27T08:42:08.526Z,4.90
2023-03-27T08:44:39.947Z,3.60
2023-03-27T08:47:16.210Z,6.45
2023-03-27T08:49:58.298Z,5.57
2023-03-27T08:52:32.841Z,7.13
2023-03-27T08:55:18.947Z,4.88
2023-03-27T08:57:55.903Z,3.33
2023-03-27T09:00:35.572Z,4.68
2023-03-27T09:03:30.051Z,4.15
2023-03-27T09:06:11.794Z,7.18
2023-03-27T09:09:07.266Z,8.52
2023-03-27T09:11:47.880Z,6.35
2023-03-27T09:14:44.019Z,3.75
2023-03-27T09:17:32.918Z,4.63
2023-03-27T09:20:20.789Z,4.97
2023-03-27T09:22:55.520Z,6.72
2023-03-27T09:26:07.294Z,8.32
2023-03-27T09:29:14.710Z,9.98
2023-03-27T09:31:53.816Z,9.15
2023-03-27T09:34:26.841Z,6.00
2023-03-27T09:36:54.732Z,1.67
2023-03-27T09:39:28.951Z,3.33
2023-03-27T09:42:20.540Z,2.35
2023-03-27T09:44:56.243Z,2.95
2023-03-27T09:47:33.060Z,3.92
2023-03-27T09:50:22.468Z,3.25
2023-03-27T09:53:23.643Z,2.85
2023-03-27T09:56:27.763Z,2.63
2023-03-27T09:58:57.539Z,1.73
2023-03-27T10:01:37.613Z,2.22
2023-03-27T10:04:20.458Z,1.10
2023-03-27T10:07:08.672Z,4.57
2023-03-27T10:10:12.181Z,3.35
2023-03-27T10:13:01.690Z,4.10
2023-03-27T10:15:41.355Z,4.70
2023-03-27T10:18:28.400Z,1.55
2023-03-27T10:21:32.651Z,2.90
2023-03-27T10:24:18.119Z,3.92
2023-03-27T10:27:12.292Z,3.58
2023-03-27T10:30:00.083Z,3.75
2023-03-27T10:32:46.211Z,3.88
2023-03-27T10:35:45.073Z,4.05
2023-03-27T10:38:29.779Z,3.30
2023-03-27T10:41:13.674Z,2.65
2023-03-27T10:43:49.575Z,2.65
2023-03-27T10:46:24.138Z,1.48
2023-03-27T10:49:10.106Z,2.20
2023-03-27T10:51:58.881Z,3.10
2023-03-27T10:54:35.974Z,3.40
2023-03-27T10:57:16.128Z,4.05
2023-03-27T10:59:55.792Z,2.00
2023-03-27T11:02:40.865Z,2.63
2023-03-27T11:05:14.960Z,2.00
2023-03-27T11:07:50.630Z,2.38
2023-03-27T11:10:40.771Z,1.30
2023-03-27T11:13:17.807Z,4.57
2023-03-27T11:16:06.151Z,1.83
2023-03-27T11:19:11.799Z,0.95
2023-03-27T11:22:13.339Z,2.78
2023-03-27T11:24:55.729Z,1.02
2023-03-27T11:27:43.286Z,1.15
2023-03-27T11:30:25.032Z,0.68
2023-03-27T11:33:26.214Z,0.43
2023-03-27T11:36:24.800Z,1.42
2023-03-27T11:39:16.942Z,2.13
2023-03-27T11:41:54.794Z,1.92
2023-03-27T11:44:26.743Z,2.83
2023-03-27T11:47:21.420Z,2.75
2023-03-27T11:50:02.778Z,1.63
2023-03-27T11:52:39.231Z,4.18
2023-03-27T11:55:21.732Z,2.65
2023-03-27T11:58:00.405Z,3.10
2023-03-27T12:01:14.458Z,4.63
2023-03-27T12:04:03.794Z,6.10
2023-03-27T12:07:06.931Z,8.85
2023-03-27T12:10:14.283Z,5.50
2023-03-27T12:13:58.178Z,7.03
2023-03-27T12:16:56.579Z,5.25
2023-03-27T12:19:38.488Z,3.53
2023-03-27T12:22:39.263Z,8.23
2023-03-27T12:25:25.823Z,6.57
2023-03-27T12:28:22.652Z,3.65
2023-03-27T12:31:46.034Z,2.40
2023-03-27T12:34:40.822Z,3.13
2023-03-27T12:37:13.589Z,5.20
2023-03-27T12:39:48.667Z,7.10
2023-03-27T12:42:43.976Z,7.15
2023-03-27T12:45:22.655Z,6.32
2023-03-27T12:48:12.828Z,6.22
2023-03-27T12:50:43.981Z,4.47
2023-03-27T12:53:29.636Z,6.38
2023-03-27T12:56:10.484Z,5.07
2023-03-27T12:58:38.714Z,4.35
2023-03-27T13:01:26.809Z,8.07
2023-03-27T13:04:40.030Z,6.78
2023-03-27T13:07:26.297Z,8.38
2023-03-27T13:10:28.362Z,7.55
2023-03-27T13:13:45.043Z,8.38
2023-03-27T13:16:48.632Z,7.60
2023-03-27T13:19:42.065Z,8.23
2023-03-27T13:22:37.412Z,10.13
2023-03-27T13:25:35.717Z,13.30
2023-03-27T13:28:22.365Z,15.63
2023-03-27T13:31:52.190Z,10.27
2023-03-27T13:34:59.883Z,11.52
2023-03-27T13:37:36.444Z,10.32
2023-03-27T13:40:31.300Z,13.60
2023-03-27T13:43:11.496Z,13.82
2023-03-27T13:45:52.283Z,12.32
2023-03-27T13:48:55.494Z,16.48
2023-03-27T13:52:04.294Z,17.70
2023-03-27T13:54:54.261Z,17.05
2023-03-27T13:57:52.308Z,16.35
2023-03-27T14:00:25.984Z,20.27
2023-03-27T14:03:38.686Z,18.17
2023-03-27T14:06:30.889Z,13.80
2023-03-27T14:09:41.164Z,17.10
2023-03-27T14:12:23.150Z,19.23
2023-03-27T14:15:31.361Z,21.65
2023-03-27T14:18:57.645Z,26.42
2023-03-27T14:21:38.276Z,16.95
2023-03-27T14:24:26.388Z,20.75
2023-03-27T14:27:04.222Z,16.90
2023-03-27T14:29:32.769Z,23.17
2023-03-27T14:32:12.599Z,15.35
2023-03-27T14:34:54.631Z,28.73
2023-03-27T14:37:42.627Z,31.48
2023-03-27T14:40:29.810Z,22.58
2023-03-27T14:43:02.041Z,23.30
2023-03-27T14:45:34.385Z,28.88
2023-03-27T14:48:09.975Z,28.70
2023-03-27T14:50:54.382Z,32.95
2023-03-27T14:53:26.874Z,16.38
2023-03-27T14:56:38.190Z,29.95
2023-03-27T14:59:12.200Z,30.23
2023-03-27T15:01:49.953Z,28.42
2023-03-27T15:04:18.593Z,29.45
2023-03-27T15:06:50.189Z,27.02
2023-03-27T15:10:03.654Z,21.90
2023-03-27T15:13:01.326Z,35.08
2023-03-27T15:15:43.094Z,25.48
2023-03-27T15:18:33.273Z,32.00
2023-03-27T15:21:05.419Z,24.13
2023-03-27T15:23:42.689Z,25.45
2023-03-27T15:26:24.548Z,17.52
2023-03-27T15:29:14.172Z,23.08
2023-03-27T15:31:43.824Z,19.45
2023-03-27T15:34:37.730Z,21.73
2023-03-27T15:37:13.241Z,25.90
2023-03-27T15:40:03.009Z,28.08
2023-03-27T15:42:45.932Z,22.60
2023-03-27T15:45:16.983Z,32.95
2023-03-27T15:47:46.928Z,28.27
2023-03-27T15:50:28.282Z,28.15
2023-03-27T15:52:58.994Z,25.70
2023-03-27T15:55:44.666Z,23.63
2023-03-27T15:58:25.768Z,25.45
2023-03-27T16:00:59.746Z,24.63
2023-03-27T16:03:30.117Z,16.92
2023-03-27T16:05:59.490Z,13.65
2023-03-27T16:08:38.478Z,19.98
2023-03-27T16:11:06.627Z,20.50
2023-03-27T16:13:52.843Z,26.45
2023-03-27T16:16:35.890Z,25.50
2023-03-27T16:19:12.942Z,23.17
2023-03-27T16:21:55.288Z,25.42
2023-03-27T16:24:22.853Z,24.42
2023-03-27T16:26:52.209Z,17.88
2023-03-27T16:29:21.208Z,28.60
2023-03-27T16:31:48.914Z,34.67
2023-03-27T16:34:23.062Z,29.48
2023-03-27T16:36:53.933Z,31.83
2023-03-27T16:39:21.510Z,32.42
2023-03-27T16:41:49.199Z,35.13
2023-03-27T16:44:16.634Z,32.50
2023-03-27T16:46:46.628Z,34.15
2023-03-27T16:49:14.167Z,28.60
2023-03-27T16:51:42.066Z,24.60
2023-03-27T16:54:09.559Z,32.90
2023-03-27T16:56:37.398Z,35.55
2023-03-27T16:59:04.941Z,38.30
2023-03-27T17:01:32.806Z,35.78
2023-03-27T17:04:00.278Z,36.13
2023-03-27T17:06:30.058Z,39.42
2023-03-27T17:09:00.487Z,40.60
2023-03-27T17:11:28.204Z,30.33
2023-03-27T17:13:55.707Z,33.95
2023-03-27T17:16:23.390Z,39.45
2023-03-27T17:18:52.072Z,40.10
2023-03-27T17:21:19.708Z,42.80
2023-03-27T17:23:48.908Z,35.05
2023-03-27T17:26:25.556Z,35.85
2023-03-27T17:28:57.309Z,20.15
2023-03-27T17:31:25.421Z,22.70
2023-03-27T17:33:53.045Z,26.25
2023-03-27T17:36:33.090Z,29.00
2023-03-27T17:39:08.057Z,23.65
2023-03-27T17:41:35.740Z,26.05
2023-03-27T17:44:03.543Z,42.17
2023-03-27T17:46:32.041Z,41.53
2023-03-27T17:48:59.602Z,35.67
2023-03-27T17:51:27.275Z,34.78
2023-03-27T17:53:54.862Z,22.98
2023-03-27T17:56:25.310Z,28.83
2023-03-27T17:58:53.690Z,30.13
2023-03-27T18:01:23.216Z,21.27
2023-03-27T18:03:51.293Z,32.80
2023-03-27T18:06:19.429Z,26.30
2023-03-27T18:08:47.142Z,27.73
2023-03-27T18:11:16.414Z,27.17
2023-03-27T18:13:45.009Z,28.02
2023-03-27T18:16:12.974Z,26.85
2023-03-27T18:18:40.820Z,26.15
2023-03-27T18:21:09.158Z,24.65
2023-03-27T18:23:46.382Z,22.45
2023-03-27T18:26:15.709Z,21.20
2023-03-27T18:28:45.933Z,28.38
2023-03-27T18:31:13.957Z,25.38
2023-03-27T18:33:41.617Z,29.75
2023-03-27T18:36:11.035Z,34.13
2023-03-27T18:38:40.759Z,24.67
2023-03-27T18:41:09.233Z,24.10
2023-03-27T18:43:36.875Z,25.70
2023-03-27T18:46:07.652Z,22.38
2023-03-27T18:48:41.914Z,31.25
2023-03-27T18:51:09.934Z,24.13
2023-03-27T18:53:37.435Z,24.98
2023-03-27T18:56:05.650Z,30.02
2023-03-27T18:58:33.053Z,31.40
2023-03-27T19:01:01.035Z,25.05
2023-03-27T19:03:35.473Z,20.30
2023-03-27T19:06:05.879Z,24.30
2023-03-27T19:08:34.217Z,25.35
2023-03-27T19:11:02.103Z,35.95
2023-03-27T19:13:48.196Z,18.17
2023-03-27T19:16:33.243Z,19.90
2023-03-27T19:19:19.130Z,18.98
2023-03-27T19:22:13.798Z,25.33
2023-03-27T19:24:44.875Z,21.23
2023-03-27T19:27:24.105Z,14.98
2023-03-27T19:29:53.865Z,18.08
2023-03-27T19:32:22.070Z,26.08
2023-03-27T19:34:49.418Z,20.40
2023-03-27T19:37:19.966Z,19.45
2023-03-27T19:39:47.359Z,16.33
2023-03-27T19:42:15.097Z,19.20
2023-03-27T19:44:42.780Z,13.70
2023-03-27T19:47:10.639Z,15.45
2023-03-27T19:49:38.163Z,12.23
2023-03-27T19:52:19.995Z,14.90
2023-03-27T19:54:47.581Z,17.45
2023-03-27T19:57:15.663Z,15.95
2023-03-27T19:59:43.042Z,16.23
2023-03-27T20:02:14.169Z,12.73
2023-03-27T20:04:41.818Z,16.45
2023-03-27T20:07:10.286Z,24.17
2023-03-27T20:09:38.137Z,18.08
2023-03-27T20:12:07.362Z,16.85
2023-03-27T20:14:34.738Z,13.93
2023-03-27T20:17:02.782Z,14.48
2023-03-27T20:19:31.295Z,16.23
2023-03-27T20:22:02.353Z,15.32
2023-03-27T20:24:31.201Z,14.55
2023-03-27T20:27:02.309Z,11.48
2023-03-27T20:29:29.699Z,15.10
2023-03-27T20:31:57.406Z,10.40
2023-03-27T20:34:24.764Z,13.07
2023-03-27T20:36:53.385Z,13.95
2023-03-27T20:39:47.440Z,15.35
2023-03-27T20:42:23.291Z,12.63
2023-03-27T20:44:55.372Z,13.85
2023-03-27T20:47:23.144Z,16.67
2023-03-27T20:49:50.749Z,13.77
2023-03-27T20:52:19.706Z,14.88
2023-03-27T20:54:48.050Z,21.17
2023-03-27T20:57:18.301Z,17.02
2023-03-27T20:59:48.423Z,14.60
2023-03-27T21:02:18.526Z,13.25
2023-03-27T21:04:46.891Z,12.20
2023-03-27T21:07:16.030Z,13.02
2023-03-27T21:09:45.890Z,14.55
2023-03-27T21:12:16.912Z,17.30
2023-03-27T21:14:44.352Z,20.95
2023-03-27T21:17:13.007Z,16.33
2023-03-27T21:19:40.243Z,12.77
2023-03-27T21:22:08.100Z,13.05
2023-03-27T21:24:35.637Z,18.30
2023-03-27T21:27:03.338Z,15.27
2023-03-27T21:29:31.278Z,22.88
2023-03-27T21:31:58.524Z,13.23
2023-03-27T21:34:26.381Z,14.40
2023-03-27T21:36:53.584Z,15.60
2023-03-27T21:39:21.437Z,17.95
2023-03-27T21:41:48.690Z,16.02
2023-03-27T21:44:16.392Z,17.50
2023-03-27T21:46:43.670Z,15.15
2023-03-27T21:49:11.450Z,14.57
2023-03-27T21:51:38.830Z,13.27
2023-03-27T21:54:06.382Z,22.27
2023-03-27T21:56:33.650Z,15.93
2023-03-27T21:59:01.516Z,14.27
2023-03-27T22:01:28.871Z,14.68
2023-03-27T22:04:02.299Z,11.00
2023-03-27T22:06:31.501Z,11.48
2023-03-27T22:08:59.076Z,16.05
2023-03-27T22:11:26.306Z,13.93
2023-03-27T22:13:55.042Z,17.67
2023-03-27T22:16:22.652Z,15.63
2023-03-27T22:18:50.393Z,13.57
2023-03-27T22:21:29.348Z,10.95
2023-03-27T22:23:58.356Z,12.27
2023-03-27T22:26:34.773Z,11.68
2023-03-27T22:29:07.854Z,14.25
2023-03-27T22:31:36.548Z,13.90
2023-03-27T22:34:05.469Z,16.48
2023-03-27T22:36:33.725Z,12.35
2023-03-27T22:39:01.669Z,14.77
2023-03-27T22:41:28.940Z,14.27
2023-03-27T22:43:56.734Z,12.77
2023-03-27T22:46:24.548Z,14.05
2023-03-27T22:48:56.955Z,12.77
2023-03-27T22:51:28.895Z,12.80
2023-03-27T22:53:56.823Z,9.98
2023-03-27T22:56:24.344Z,14.40
2023-03-27T22:58:52.010Z,16.00
2023-03-27T23:01:19.384Z,13.65
2023-03-27T23:03:47.219Z,20.38
2023-03-27T23:06:19.924Z,15.43
2023-03-27T23:08:51.473Z,15.75
2023-03-27T23:11:19.217Z,14.10
2023-03-27T23:13:47.186Z,14.38
2023-03-27T23:16:14.557Z,11.57
2023-03-27T23:18:42.299Z,11.10
2023-03-27T23:21:12.357Z,16.17
2023-03-27T23:23:41.095Z,13.52
2023-03-27T23:26:09.421Z,18.38
2023-03-27T23:28:39.946Z,13.32
2023-03-27T23:31:11.541Z,14.77
2023-03-27T23:33:43.390Z,14.57
2023-03-27T23:36:18.895Z,18.13
2023-03-27T23:38:46.669Z,11.18
2023-03-27T23:41:15.917Z,12.15
2023-03-27T23:43:43.572Z,11.18
2023-03-27T23:46:11.449Z,13.70
2023-03-27T23:48:41.450Z,18.95
2023-03-27T23:51:09.775Z,16.67
2023-03-27T23:53:37.548Z,17.30
2023-03-27T23:56:05.429Z,17.13
2023-03-27T23:58:33.085Z,16.30
